Skip Navigation Links Skip Navigation Links

Current Weather

Whiteside Co Arpt-Jos H Bittorf Fld, Sterling/Rockfalls, Ill.

For information only: do not use for flight planning or navigation.
Latest weather
Observation time Saturday, August 24, 2019 11:56 PM CDT
Local time Sunday, August 25, 2019 12:13 AM CDT
Flight conditions Visual Meteorological Conditions
Winds
Wind direction East (100°)
Wind speed 5 mph
Visibility 10 mi.
Sky condition
Ceiling unlimited
Sky clear
Temperature 56°F
Dewpoint 54°F
Altimeter 30.19 in.Hg
Derived measurements
Relative humidity 93%
Density altitude 336 ft.
Sea-level pressure 29.79 in.Hg
Remarks
Fully automated report.
Automated weather observing station with precipitation discriminator.
METAR KSQI 250456Z AUTO 10004KT 10SM CLR 13/12 A3019 RMK AO2 SLP087 T01330122

Settings

Location code

InnerDrive.Weather 4.0.6770.0 Release CLR 4.0.30319.42000
Copyright ©2018 Inner Drive Technology. All rights reserved. Portions Copyright ©1986-2018 David Braverman.

Find weather

Site navigation


Skip Navigation Links

Place info

Page info

PayPal - The safer, easier way to pay online!

Return home.

Copyright ©2019 Inner Drive Technology. Purveyors of fine, hand-crafted computer software. Page printed 2019-08-25T05:13:10 UTC.